map of KAAT home
KAAT - Airport
Location
City:  Alturas, California, United States
Name:Alturas Municipal Airport
ICAO:KAAT
FAA LID:AAT

Details
Type:Airport (Airfield)
Use:Public/Civil
Latitude:4128'58"N (41.482861)
Longitude:12033'55"W (-120.565416)
Datum:WGS 1984
Elevation:4378 ft (1334 m)
Variation:13.91E (WMM2015v2 magnetic declination)
-0.09 annual change
Runways:2
Longest:4228 × 50 ft (1289 × 15 m), paved

Time
Time Zone:UTC-8 (DST-7)
Local Time:

Weather
METAR:KAAT 041355Z AUTO 16014G21KT 10SM OVC065 00/M03 A2927 RMK AO2 SNB1258E11 SLP916 P0000 T00001028 $

Related Locations
Nearby:
Farthest:FTU: 11093 mi / 17853 km
Tolagnaro [Maurillac Airport (Fort Dauphin Airport)], MG

Find:

   beyond  
but within

Other Information
Maps:
NOTAMs:
Links:
Sources:

  
  • flag of United States
  • flag of California
  

Sectional Chart

Flight Planning
at skyvector.com

Satellite Image

Google Maps Satellite view

 

Copyright © 2004-2019 Karl L. Swartz. All rights reserved.
The Great Circle Mapper name and logo are trademarks of the Great Circle Mapper.
All other trademarks mentioned herein belong to their respective owners.
Please see credits for attibutions and further copyright information.

  Follow gcmap on Facebook Follow gcmap on Twitter GCmap on LinkedIn

hCard Microformat

Geo Microformat